Stuarts Draft, VA

3:16 AM EDT on September 03, 2015 (GMT -0400)
Old White Hill Road | | Change Station
CLOSE
Current Station
Personal Weather Station
Location: Stuarts Draft, VA
Elevation: 1378 ft
Nearby Weather Stations

Elev 1378 ft 38.02 °N, 79.04 °W | Updated 1 minute ago

Clear
Clear
65.3 °F
Feels Like 65.3 °F
N
1.0
Wind Variable Wind from West
Gusts 3.0 mph

Today
High -- | Low -- °F
--% Chance of Precip.
Yesterday
High -- | Low -- °F
Precip. -- in
6:47 AM 7:42 PM
Waning Gibbous, 73% visible
Pressure 30.02 in
Visibility 1.8 miles
Clouds
Dew Point 63 °F
Humidity 92%
Rainfall 0.00 in
Snow Depth Not available.
UV Not available.
Pollen 8.80 out of 12
Air Quality Not available.
Flu Activity Not available.
METAR KSHD 030655Z AUTO 00000KT 1 3/4SM BR VV007 18/17 A3002 RMK AO2 VIS 3/4V3 T01830172
Pressure 30.02 in
Visibility 1.8 miles
Clouds
Dew Point 63 °F
Humidity 92%
Rainfall 0.00 in
Snow Depth Not available.
UV Not available.
Pollen 8.80 out of 12
Air Quality Not available.
Flu Activity Not available.
METAR KSHD 030655Z AUTO 00000KT 1 3/4SM BR VV007 18/17 A3002 RMK AO2 VIS 3/4V3 T01830172

10-Day Weather Forecast

×

Almanac

Astronomy

Sep. 03, 2015 Rise Set
Actual Time
Civil Twilight
Nautical Twilight
Astronomical Twilight
Moon
Length of Visible Light
Length of Day
Tomorrow will be .
, % of the Moon is Illuminated

Today's Extremes

State Highs State Lows

Community

WunderPhotos

Upload Photos

1,851,915 photos uploaded!

WunderBlogs® & News

Nearby

Air Quality

  Air Quality AQ Index Pollutant
Not available.

Snow Depth

Station Depth Elevation

Earthquake Activity

City Distance Mag. Time & Date
Minimum magnitude displayed is 2.5.

Coastal Water Temperatures

Place Temperature

Stations

Nearby Weather Stations

Station Location Temp. Windchill Dew Point Humidity Wind Precip. Elev Updated Type